Kezdőlap
METAR-TAF:

METAR-TAF

Repülőterek :

Ceuta, Spanyolország

földrajzi szélesség: 35-53-33N, földrajzi hosszúság: 5-18-21W, magasság: 2 m

Jelenlegi meteorológiai megfigyelések

A jelentés 32 perccel ezelõtt készült, 00:00 UTC
Különbözõ irányokból fújó szél 3 kt
Hőmérséklet 23°C
Páratartalom 53%
Légköri nyomás 1012 hPa
Látótávolság 10 km, vagy több
felhőtlen 1500 m magasságban, és nincs gomolyfelhõ

METAR: GECE 180000Z AUTO VRB03KT CAVOK 23/13 Q1012

Idő: 02:32 (00:32 UTC)

Előrejelzés

A jelentés 10 órával és 32 perccel ezelõtt készült, 14:00 UTC
Az előrejelzés 17-én 15 óra UTC és 18-én 15 óra UTC között érvényes
Déli szél 4 kt
Látótávolság 10 km, vagy több
felhőtlen 1500 m magasságban, és nincs gomolyfelhõ
17-én 18 óra UTC és 17-én 20 óra UTC között fokozatosan kialakuló
Nyugat-északnyugati szél 12 kt

TAF: GECE 171400Z 1715/1815 18004KT CAVOK TX27/1814Z TN18/1807Z BECMG 1718/1720 29012KT

Meteorológiai megfigyelések és előrejelzések több, mint 4000 repülőtéren (METAR és TAF jelentéseket).

A térképen piros és sárga pontok jelzik az elérhető meteorológiai állomásokat.

Mozgassa az egeret a pont fölött, hogy megjelenjen az állomás neve.

Azután kattintson az időjárási megfigyelések és előrejelzések megtekintéséhez.

A térkép megváltoztatása: kattintson a fekete keresztel jelölt zöld gombra ráközelítéshez, a vonallal jelölt zöld gombra távolításhoz, vagy a zöld nyilakra a szomszédos térképek eléréséhez.


METAR-TAF: